Time;durP1;ratioP1;P1;durP2;ratioP2;P2;SDS_P1;SDS_P2;PMS_P1;PMS_P2;Temp;Humidity;BMP_temperature;BMP_pressure;BME280_temperature;BME280_humidity;BME280_pressure;Samples;Min_cycle;Max_cycle;Signal;HPM_P1;HPM_P2
2023/04/14 00:02:34;;;;;;;6.80;5.20;;;;;;;7.83;81.34;99430.48;129755;1262;115447;-66
2023/04/14 00:05:36;;;;;;;8.90;5.60;;;;;;;7.83;81.43;99425.50;129452;1264;115412;-68
2023/04/14 00:08:39;;;;;;;8.50;5.70;;;;;;;7.83;81.50;99420.17;129645;1264;115245;-65
2023/04/14 00:11:41;;;;;;;8.90;5.40;;;;;;;7.82;81.26;99421.09;129768;1261;114849;-66
2023/04/14 00:14:43;;;;;;;9.80;5.60;;;;;;;7.82;81.21;99420.73;129594;1282;128262;-64
2023/04/14 00:17:45;;;;;;;12.40;6.80;;;;;;;7.83;81.35;99414.81;129667;1264;114700;-66
2023/04/14 00:20:47;;;;;;;10.80;8.00;;;;;;;7.84;81.75;99415.86;129717;1263;114718;-65
2023/04/14 00:23:49;;;;;;;11.10;7.60;;;;;;;7.83;81.41;99408.07;129485;1264;114657;-65
2023/04/14 00:26:51;;;;;;;10.00;8.20;;;;;;;7.84;81.44;99403.21;129699;1281;114885;-66
2023/04/14 00:29:53;;;;;;;12.50;8.20;;;;;;;7.84;81.39;99403.58;129761;1273;114718;-67
2023/04/14 00:32:55;;;;;;;13.70;9.30;;;;;;;7.82;81.54;99400.65;129534;1264;114718;-66
2023/04/14 00:35:58;;;;;;;11.60;8.60;;;;;;;7.82;81.29;99401.35;129760;1261;114733;-67
2023/04/14 00:39:00;;;;;;;16.60;9.30;;;;;;;7.82;81.65;99399.21;129754;1263;114759;-66
2023/04/14 00:42:02;;;;;;;14.20;9.00;;;;;;;7.82;81.45;99399.20;129672;1263;114773;-67
2023/04/14 00:45:05;;;;;;;12.70;9.20;;;;;;;7.83;81.47;99396.50;129761;1264;114654;-66
2023/04/14 00:48:08;;;;;;;13.20;9.00;;;;;;;7.83;81.49;99393.48;129634;1264;115240;-67
2023/04/14 00:51:10;;;;;;;14.20;8.70;;;;;;;7.84;81.51;99394.52;129735;1264;114733;-66
2023/04/14 00:54:14;;;;;;;13.70;8.40;;;;;;;7.84;81.52;99396.65;129716;1260;115660;-66
2023/04/14 00:57:17;;;;;;;12.90;8.80;;;;;;;7.83;81.67;99394.02;129397;1282;127531;-65
2023/04/14 01:00:20;;;;;;;13.60;8.80;;;;;;;7.83;81.43;99391.54;129704;1264;115109;-65
2023/04/14 01:03:25;;;;;;;12.20;8.50;;;;;;;7.82;81.65;99394.42;129703;1264;114740;-65
2023/04/14 01:06:28;;;;;;;14.40;9.30;;;;;;;7.82;81.36;99392.10;129666;1264;115192;-66
2023/04/14 01:09:30;;;;;;;12.30;8.50;;;;;;;7.82;81.40;99390.89;129721;1267;114803;-65
2023/04/14 01:12:45;;;;;;;11.60;8.70;;;;;;;7.82;81.83;99386.43;129644;1261;114723;-65
2023/04/14 01:16:03;;;;;;;13.10;8.00;;;;;;;7.82;81.57;99382.86;129689;1263;114741;-66
2023/04/14 01:19:46;;;;;;;11.70;8.50;;;;;;;7.82;81.88;99388.02;129484;1261;114905;-66
2023/04/14 01:22:54;;;;;;;12.70;7.30;;;;;;;7.82;81.84;99393.36;129512;1282;226160;-66
2023/04/14 01:26:10;;;;;;;9.20;7.20;;;;;;;7.82;81.62;99397.09;129757;1267;114890;-66
2023/04/14 01:29:34;;;;;;;10.20;7.20;;;;;;;7.82;81.93;99395.14;129516;1271;126533;-66
2023/04/14 01:32:42;;;;;;;12.70;7.00;;;;;;;7.81;81.88;99391.80;129721;1262;115150;-65
2023/04/14 01:35:50;;;;;;;11.50;8.00;;;;;;;7.81;81.82;99393.21;129728;1264;114801;-66
2023/04/14 01:38:54;;;;;;;10.20;7.10;;;;;;;7.81;81.75;99399.30;129647;1264;114788;-66
2023/04/14 01:42:01;;;;;;;14.90;7.50;;;;;;;7.81;81.42;99408.02;129726;1282;114779;-65
2023/04/14 01:45:10;;;;;;;11.60;7.40;;;;;;;7.80;81.84;99398.45;129460;1261;128027;-65
2023/04/14 01:48:13;;;;;;;12.90;7.80;;;;;;;7.80;81.62;99392.77;129400;1264;115237;-65
2023/04/14 01:51:17;;;;;;;13.00;8.10;;;;;;;7.79;81.83;99395.48;129665;1264;115401;-65
2023/04/14 01:54:19;;;;;;;11.60;7.80;;;;;;;7.79;81.70;99391.38;129692;1263;116337;-65
2023/04/14 01:57:22;;;;;;;12.30;8.40;;;;;;;7.79;81.90;99390.15;129636;1262;115535;-67
2023/04/14 02:00:24;;;;;;;11.00;7.80;;;;;;;7.79;82.10;99387.81;129611;1263;114829;-66
2023/04/14 02:03:27;;;;;;;18.50;9.30;;;;;;;7.78;81.59;99378.98;129814;1260;115386;-65
2023/04/14 02:06:31;;;;;;;14.00;9.70;;;;;;;7.79;81.90;99372.57;129654;1263;115281;-65
2023/04/14 02:09:33;;;;;;;10.90;8.90;;;;;;;7.79;81.99;99373.61;129518;1267;114775;-65
2023/04/14 02:12:37;;;;;;;11.90;8.60;;;;;;;7.79;82.04;99374.88;129632;1264;114894;-66
2023/04/14 02:15:40;;;;;;;12.80;9.80;;;;;;;7.78;81.91;99377.07;129460;1266;114846;-65
2023/04/14 02:18:42;;;;;;;13.60;9.80;;;;;;;7.77;81.77;99373.71;129592;1264;114844;-66
2023/04/14 02:21:49;;;;;;;10.80;7.60;;;;;;;7.77;81.83;99364.83;129652;1272;114766;-66
2023/04/14 02:24:53;;;;;;;13.40;9.20;;;;;;;7.77;82.41;99366.42;129675;1282;114727;-65
2023/04/14 02:28:03;;;;;;;9.50;6.80;;;;;;;7.78;82.18;99365.86;129550;1266;114831;-66
2023/04/14 02:31:07;;;;;;;12.10;7.90;;;;;;;7.77;81.79;99360.55;129538;1280;114857;-65
2023/04/14 02:34:12;;;;;;;11.30;7.30;;;;;;;7.76;81.98;99356.71;129755;1282;128860;-66
2023/04/14 02:37:19;;;;;;;10.60;6.90;;;;;;;7.74;82.03;99362.65;129723;1277;114878;-66
2023/04/14 02:40:26;;;;;;;12.70;7.40;;;;;;;7.74;81.96;99359.98;129552;1266;114693;-66
2023/04/14 02:43:30;;;;;;;11.40;6.70;;;;;;;7.74;82.26;99357.31;129626;1266;115141;-66
2023/04/14 02:46:36;;;;;;;14.80;7.60;;;;;;;7.74;81.63;99358.20;129425;1279;114922;-66
2023/04/14 02:49:48;;;;;;;11.40;8.00;;;;;;;7.74;81.96;99361.23;129394;1276;127744;-66
2023/04/14 02:52:52;;;;;;;9.90;7.20;;;;;;;7.75;82.23;99365.11;129667;1265;114664;-65
2023/04/14 02:55:55;;;;;;;15.10;9.40;;;;;;;7.76;82.35;99358.86;129618;1259;114785;-66
2023/04/14 02:58:57;;;;;;;14.70;9.00;;;;;;;7.75;82.24;99363.31;129782;1271;114807;-66
2023/04/14 03:02:03;;;;;;;16.80;9.50;;;;;;;7.75;82.02;99359.95;129800;1261;114808;-68
2023/04/14 03:05:06;;;;;;;14.60;9.50;;;;;;;7.73;82.04;99359.50;129720;1282;128137;-67
2023/04/14 03:08:12;;;;;;;16.80;10.30;;;;;;;7.73;82.15;99359.33;129815;1263;114798;-65
2023/04/14 03:11:14;;;;;;;16.10;11.00;;;;;;;7.74;82.16;99365.35;129879;1261;114721;-67
2023/04/14 03:14:18;;;;;;;19.60;11.00;;;;;;;7.74;82.33;99360.69;129780;1271;114750;-65
2023/04/14 03:17:20;;;;;;;16.70;11.40;;;;;;;7.75;82.31;99358.89;129816;1282;115176;-66
2023/04/14 03:20:23;;;;;;;22.20;13.40;;;;;;;7.74;82.26;99351.98;129644;1263;114865;-67
2023/04/14 03:23:26;;;;;;;20.40;13.30;;;;;;;7.74;82.24;99353.43;129770;1263;114727;-66
2023/04/14 03:26:28;;;;;;;25.50;17.20;;;;;;;7.74;82.40;99349.16;129522;1264;115384;-66
2023/04/14 03:29:37;;;;;;;28.40;16.60;;;;;;;7.74;82.46;99347.36;129714;1264;114824;-67
2023/04/14 03:32:40;;;;;;;28.80;16.60;;;;;;;7.75;82.45;99342.70;129455;1267;114929;-66
2023/04/14 03:35:44;;;;;;;22.00;14.80;;;;;;;7.75;82.31;99337.39;129441;1267;115175;-65
2023/04/14 03:38:48;;;;;;;32.30;16.40;;;;;;;7.75;82.58;99333.29;129555;1280;128928;-66
2023/04/14 03:41:53;;;;;;;30.20;18.90;;;;;;;7.75;82.43;99329.91;129316;1267;116396;-65
2023/04/14 03:44:57;;;;;;;36.80;22.00;;;;;;;7.73;82.59;99325.56;129270;1267;114776;-65
2023/04/14 03:48:02;;;;;;;36.00;22.60;;;;;;;7.73;82.68;99327.72;129284;1263;115002;-66
2023/04/14 03:51:05;;;;;;;33.00;21.80;;;;;;;7.73;82.62;99336.59;129386;1282;114817;-66
2023/04/14 03:54:08;;;;;;;37.50;24.00;;;;;;;7.73;82.73;99343.35;129357;1264;127851;-65
2023/04/14 03:57:12;;;;;;;37.20;24.20;;;;;;;7.72;82.54;99341.64;129381;1282;114747;-65
2023/04/14 04:00:15;;;;;;;37.40;25.90;;;;;;;7.72;82.71;99347.83;129208;1260;114887;-66
2023/04/14 04:03:18;;;;;;;60.20;33.30;;;;;;;7.71;82.82;99343.98;129429;1263;114778;-66
2023/04/14 04:06:21;;;;;;;56.50;31.10;;;;;;;7.70;82.83;99341.55;129730;1274;114759;-66
2023/04/14 04:09:24;;;;;;;51.30;33.00;;;;;;;7.67;82.94;99338.18;129660;1264;114707;-65
2023/04/14 04:12:26;;;;;;;58.40;33.30;;;;;;;7.64;82.56;99337.08;129679;1263;114881;-65
2023/04/14 04:15:30;;;;;;;46.40;28.70;;;;;;;7.64;83.20;99336.71;129754;1264;114813;-66
2023/04/14 04:18:34;;;;;;;50.50;33.30;;;;;;;7.65;83.10;99329.06;129732;1264;114768;-66
2023/04/14 04:21:41;;;;;;;50.20;34.20;;;;;;;7.65;83.10;99328.86;129674;1266;114980;-66
2023/04/14 04:24:44;;;;;;;48.90;29.20;;;;;;;7.64;82.96;99329.80;129534;1274;114832;-65
2023/04/14 04:27:47;;;;;;;39.10;27.40;;;;;;;7.62;82.94;99326.33;129627;1260;114788;-66
2023/04/14 04:30:50;;;;;;;38.80;26.20;;;;;;;7.61;82.99;99316.11;129664;1264;114804;-65
2023/04/14 04:33:52;;;;;;;40.30;25.90;;;;;;;7.60;83.02;99317.56;129695;1282;115410;-65
2023/04/14 04:36:54;;;;;;;40.00;25.90;;;;;;;7.59;83.39;99316.92;129713;1263;114791;-67
2023/04/14 04:39:57;;;;;;;41.80;25.50;;;;;;;7.57;83.14;99313.64;129438;1267;114847;-66
2023/04/14 04:42:59;;;;;;;41.40;25.50;;;;;;;7.57;83.28;99312.76;129707;1282;114854;-66
2023/04/14 04:46:14;;;;;;;33.70;23.80;;;;;;;7.56;83.36;99311.70;129651;1265;114779;-67
2023/04/14 04:49:16;;;;;;;42.60;26.20;;;;;;;7.57;83.60;99314.35;129683;1263;114794;-66
2023/04/14 04:52:19;;;;;;;42.20;26.10;;;;;;;7.57;83.23;99310.42;129676;1262;115246;-66
2023/04/14 04:55:21;;;;;;;38.10;25.50;;;;;;;7.59;83.59;99312.80;129769;1261;114804;-66
2023/04/14 04:58:23;;;;;;;48.30;27.20;;;;;;;7.61;83.30;99313.78;129709;1273;114825;-66
2023/04/14 05:01:25;;;;;;;59.50;29.80;;;;;;;7.63;83.42;99306.37;129667;1263;114898;-67
2023/04/14 05:04:32;;;;;;;48.30;29.70;;;;;;;7.65;83.52;99305.93;129797;1263;115366;-67
2023/04/14 05:07:34;;;;;;;46.60;27.80;;;;;;;7.67;83.48;99308.46;129505;1267;127724;-66
2023/04/14 05:10:36;;;;;;;51.20;29.20;;;;;;;7.69;83.47;99305.71;129689;1280;114739;-66
2023/04/14 05:13:38;;;;;;;46.20;27.90;;;;;;;7.70;83.57;99304.05;129737;1272;114718;-67
2023/04/14 05:16:40;;;;;;;46.90;28.40;;;;;;;7.71;83.27;99302.05;129468;1258;114967;-67
2023/04/14 05:19:42;;;;;;;44.50;26.30;;;;;;;7.72;83.58;99301.98;129684;1263;115364;-66
2023/04/14 05:22:44;;;;;;;45.60;27.70;;;;;;;7.72;83.32;99303.58;129722;1263;114734;-65
2023/04/14 05:25:46;;;;;;;41.20;26.20;;;;;;;7.73;83.29;99305.65;129668;1263;114834;-65
2023/04/14 05:28:48;;;;;;;42.80;27.50;;;;;;;7.75;83.62;99308.07;129648;1263;114826;-66
2023/04/14 05:31:50;;;;;;;43.20;28.10;;;;;;;7.75;83.39;99309.81;129749;1264;114731;-65
2023/04/14 05:34:52;;;;;;;44.00;29.40;;;;;;;7.74;83.50;99306.84;129654;1261;115431;-65
2023/04/14 05:37:55;;;;;;;49.70;29.80;;;;;;;7.74;83.23;99303.83;129706;1263;114826;-65
2023/04/14 05:40:57;;;;;;;45.50;28.10;;;;;;;7.75;83.56;99303.96;129730;1264;114708;-65
2023/04/14 05:43:59;;;;;;;47.70;28.30;;;;;;;7.77;83.44;99310.44;129736;1271;114815;-65
2023/04/14 05:47:01;;;;;;;43.90;28.50;;;;;;;7.80;83.60;99313.10;129788;1262;114752;-65
2023/04/14 05:50:05;;;;;;;48.80;28.70;;;;;;;7.82;83.46;99307.50;129661;1261;115350;-67
2023/04/14 05:53:07;;;;;;;46.70;28.30;;;;;;;7.85;83.67;99303.08;129750;1261;115188;-67
2023/04/14 05:56:10;;;;;;;46.50;27.20;;;;;;;7.87;83.40;99299.20;129705;1260;115245;-67
2023/04/14 05:59:12;;;;;;;45.10;27.30;;;;;;;7.90;83.58;99294.44;129523;1266;114851;-66
2023/04/14 06:02:14;;;;;;;45.40;27.90;;;;;;;7.95;83.54;99295.08;129730;1260;114784;-66
2023/04/14 06:05:17;;;;;;;43.10;28.30;;;;;;;7.98;83.35;99291.85;129789;1272;114773;-66
2023/04/14 06:08:20;;;;;;;41.70;27.40;;;;;;;8.01;83.54;99291.54;129796;1277;114803;-65
2023/04/14 06:11:22;;;;;;;46.30;28.30;;;;;;;8.03;83.55;99292.45;129382;1267;128001;-66
2023/04/14 06:14:24;;;;;;;44.10;28.00;;;;;;;8.06;83.75;99285.19;129648;1261;114679;-66
2023/04/14 06:17:27;;;;;;;44.10;27.90;;;;;;;8.09;83.79;99276.71;129740;1271;114894;-66
2023/04/14 06:20:30;;;;;;;46.00;28.00;;;;;;;8.11;83.82;99267.15;129449;1260;114924;-67
2023/04/14 06:23:32;;;;;;;47.40;29.90;;;;;;;8.14;83.77;99259.35;129518;1266;114869;-65
2023/04/14 06:26:35;;;;;;;46.10;27.60;;;;;;;8.18;83.73;99251.98;129679;1260;115176;-66
2023/04/14 06:29:38;;;;;;;48.80;29.50;;;;;;;8.23;83.88;99245.66;129667;1282;114866;-66
2023/04/14 06:32:40;;;;;;;44.80;29.50;;;;;;;8.27;83.65;99240.67;129739;1263;114770;-66
2023/04/14 06:35:45;;;;;;;44.20;29.10;;;;;;;8.33;83.94;99240.66;129878;1278;115406;-66
2023/04/14 06:38:47;;;;;;;42.00;27.80;;;;;;;8.40;83.85;99236.02;129652;1264;114806;-66
2023/04/14 06:41:49;;;;;;;37.30;26.00;;;;;;;8.46;83.99;99232.27;129689;1263;114742;-66
2023/04/14 06:44:51;;;;;;;44.40;26.80;;;;;;;8.55;84.04;99218.95;129783;1263;115090;-66
2023/04/14 06:47:54;;;;;;;36.70;24.90;;;;;;;8.67;84.16;99213.98;129674;1261;115169;-66
2023/04/14 06:50:57;;;;;;;37.40;25.40;;;;;;;8.82;84.26;99213.13;129706;1263;114737;-66
2023/04/14 06:53:59;;;;;;;38.70;25.70;;;;;;;8.98;84.33;99216.04;129819;1262;114731;-66
2023/04/14 06:57:02;;;;;;;40.40;25.90;;;;;;;9.16;84.17;99210.34;129724;1282;114744;-67
2023/04/14 07:00:05;;;;;;;39.80;26.20;;;;;;;9.31;84.03;99207.81;129746;1263;114782;-66
2023/04/14 07:03:08;;;;;;;37.10;25.70;;;;;;;9.43;83.77;99205.65;129546;1266;114847;-66
2023/04/14 07:06:10;;;;;;;45.20;26.30;;;;;;;9.55;83.78;99203.31;129644;1260;115440;-66
2023/04/14 07:09:13;;;;;;;38.70;25.60;;;;;;;9.64;83.69;99202.39;129675;1263;114744;-66
2023/04/14 07:12:16;;;;;;;36.80;25.50;;;;;;;9.70;83.23;99204.32;129778;1260;114820;-66
2023/04/14 07:15:18;;;;;;;36.80;24.80;;;;;;;9.72;83.11;99212.92;129769;1260;114644;-66
2023/04/14 07:18:20;;;;;;;38.50;25.80;;;;;;;9.74;82.84;99214.06;129650;1263;115096;-65
2023/04/14 07:21:22;;;;;;;37.90;26.00;;;;;;;9.78;83.00;99211.47;129760;1276;114722;-66
2023/04/14 07:24:24;;;;;;;41.40;26.70;;;;;;;9.84;82.99;99213.45;129427;1264;114756;-66
2023/04/14 07:27:27;;;;;;;38.80;25.80;;;;;;;9.87;82.81;99216.61;129632;1264;114750;-66
2023/04/14 07:30:30;;;;;;;38.40;25.60;;;;;;;9.90;82.49;99219.30;129807;1260;114851;-66
2023/04/14 07:33:33;;;;;;;42.10;28.10;;;;;;;9.95;83.10;99217.55;129652;1264;114734;-67
2023/04/14 07:36:35;;;;;;;39.50;27.80;;;;;;;9.99;82.55;99214.96;129728;1263;115272;-66
2023/04/14 07:39:37;;;;;;;36.70;25.60;;;;;;;10.01;82.57;99217.30;129670;1262;115205;-66
2023/04/14 07:42:39;;;;;;;46.40;29.90;;;;;;;10.05;82.61;99220.66;129688;1263;114829;-67
2023/04/14 07:45:42;;;;;;;46.30;28.90;;;;;;;10.07;82.50;99218.01;129714;1279;116529;-66
2023/04/14 07:48:44;;;;;;;47.90;29.80;;;;;;;10.10;82.42;99215.17;129689;1263;114791;-65
2023/04/14 07:51:46;;;;;;;40.60;27.10;;;;;;;10.12;82.34;99217.84;129622;1264;114739;-66
2023/04/14 07:54:49;;;;;;;44.20;28.40;;;;;;;10.14;82.21;99209.88;129736;1260;115626;-66
2023/04/14 07:57:51;;;;;;;47.10;29.20;;;;;;;10.18;82.06;99208.17;129763;1261;115274;-66
2023/04/14 08:00:53;;;;;;;44.50;30.40;;;;;;;10.22;82.02;99207.27;129652;1262;114725;-66
2023/04/14 08:03:56;;;;;;;41.10;27.80;;;;;;;10.26;82.10;99202.67;129718;1258;114727;-66
2023/04/14 08:06:58;;;;;;;43.90;29.90;;;;;;;10.29;81.79;99204.99;129579;1265;114836;-66
2023/04/14 08:10:00;;;;;;;44.20;30.20;;;;;;;10.31;82.01;99203.09;129739;1261;114788;-66
2023/04/14 08:13:02;;;;;;;48.00;31.20;;;;;;;10.31;81.45;99209.69;129715;1263;114789;-66
2023/04/14 08:16:05;;;;;;;49.50;31.30;;;;;;;10.32;81.56;99210.35;129563;1266;126669;-66
2023/04/14 08:19:08;;;;;;;44.10;30.00;;;;;;;10.35;81.73;99213.00;129699;1275;114747;-65
2023/04/14 08:22:09;;;;;;;46.10;32.30;;;;;;;10.41;81.49;99215.33;129700;1263;114747;-65
2023/04/14 08:25:12;;;;;;;44.40;29.50;;;;;;;10.48;81.74;99209.47;129737;1264;114833;-65
2023/04/14 08:28:13;;;;;;;44.90;30.80;;;;;;;10.59;82.03;99213.73;129677;1261;115068;-65
2023/04/14 08:31:16;;;;;;;46.60;30.50;;;;;;;10.70;82.13;99211.27;129638;1259;115080;-65
2023/04/14 08:34:18;;;;;;;43.60;29.60;;;;;;;10.78;81.99;99205.91;129821;1275;114727;-65
2023/04/14 08:37:21;;;;;;;44.40;30.10;;;;;;;10.86;81.65;99205.49;129762;1266;127913;-65
2023/04/14 08:40:28;;;;;;;42.10;28.80;;;;;;;10.94;81.41;99204.40;129698;1261;116455;-65
2023/04/14 08:43:30;;;;;;;48.40;31.10;;;;;;;11.01;81.31;99205.73;129583;1265;114881;-65
2023/04/14 08:46:34;;;;;;;46.70;31.30;;;;;;;11.08;81.08;99203.65;129727;1260;114823;-64
2023/04/14 08:49:42;;;;;;;50.10;33.20;;;;;;;11.17;81.47;99198.06;129746;1263;114711;-66
2023/04/14 08:52:45;;;;;;;54.20;34.50;;;;;;;11.22;81.32;99196.04;129827;1264;128573;-65
2023/04/14 08:55:47;;;;;;;50.00;33.60;;;;;;;11.25;80.84;99194.27;129755;1264;114725;-66
2023/04/14 08:58:49;;;;;;;52.00;35.00;;;;;;;11.27;80.78;99200.89;129673;1262;114867;-66
2023/04/14 09:01:52;;;;;;;55.20;38.30;;;;;;;11.28;80.67;99198.31;129718;1263;115249;-64
2023/04/14 09:04:56;;;;;;;69.30;44.40;;;;;;;11.30;80.64;99196.42;129793;1264;114842;-65
2023/04/14 09:07:58;;;;;;;71.80;46.40;;;;;;;11.30;80.41;99194.47;129849;1259;114730;-66
2023/04/14 09:11:01;;;;;;;67.70;45.00;;;;;;;11.32;80.25;99191.98;129783;1261;115380;-66
2023/04/14 09:14:03;;;;;;;69.40;44.10;;;;;;;11.31;79.87;99189.56;129855;1263;114789;-66
2023/04/14 09:17:05;;;;;;;71.60;45.80;;;;;;;11.32;80.28;99190.22;129803;1263;116429;-65
2023/04/14 09:20:08;;;;;;;69.30;45.00;;;;;;;11.35;80.17;99186.92;129153;1261;114826;-65
2023/04/14 09:23:11;;;;;;;66.30;43.20;;;;;;;11.37;79.85;99187.84;129964;1263;115019;-65
2023/04/14 09:26:13;;;;;;;67.50;43.50;;;;;;;11.42;79.89;99186.13;129392;1282;114844;-65
2023/04/14 09:29:16;;;;;;;75.30;46.30;;;;;;;11.45;79.94;99181.23;129595;1261;114753;-65
2023/04/14 09:32:21;;;;;;;76.20;47.10;;;;;;;11.51;79.97;99182.98;129479;1262;115282;-65
2023/04/14 09:35:48;;;;;;;70.20;45.20;;;;;;;11.58;80.07;99176.05;129442;1259;114752;-65
2023/04/14 09:38:51;;;;;;;72.30;44.30;;;;;;;11.66;79.75;99171.86;129409;1264;114730;-66
2023/04/14 09:41:53;;;;;;;76.50;47.60;;;;;;;11.73;79.69;99173.86;129459;1265;114769;-68
2023/04/14 09:44:57;;;;;;;69.90;45.40;;;;;;;11.82;79.52;99179.30;129667;1260;114788;-64
2023/04/14 09:48:11;;;;;;;71.00;44.50;;;;;;;11.88;79.31;99173.30;129395;1263;114731;-65
2023/04/14 09:51:14;;;;;;;66.50;43.70;;;;;;;11.94;78.91;99170.17;129655;1281;115355;-66
2023/04/14 09:54:26;;;;;;;63.50;42.20;;;;;;;11.99;79.13;99172.89;129561;1260;115591;-65
2023/04/14 09:57:29;;;;;;;65.80;44.80;;;;;;;12.09;78.92;99173.95;129516;1264;114887;-64
2023/04/14 10:00:31;;;;;;;72.50;45.30;;;;;;;12.21;79.15;99173.44;129692;1261;115112;-66
2023/04/14 10:03:38;;;;;;;70.20;45.70;;;;;;;12.38;78.97;99172.16;129636;1264;114823;-65
2023/04/14 10:06:41;;;;;;;65.60;44.40;;;;;;;12.58;79.12;99170.34;129768;1261;115418;-66
2023/04/14 10:09:47;;;;;;;67.20;44.00;;;;;;;12.80;78.92;99167.21;129731;1263;115399;-67
2023/04/14 10:12:51;;;;;;;66.00;45.60;;;;;;;13.01;78.27;99166.86;129457;1266;114936;-65
2023/04/14 10:15:53;;;;;;;63.30;44.50;;;;;;;13.12;77.66;99165.14;129685;1260;114740;-66
2023/04/14 10:18:58;;;;;;;68.50;46.00;;;;;;;13.19;77.01;99156.81;129655;1260;114870;-66
2023/04/14 10:22:01;;;;;;;65.10;44.50;;;;;;;13.26;76.68;99161.89;129481;1279;115189;-65
2023/04/14 10:25:04;;;;;;;65.70;45.50;;;;;;;13.36;76.58;99159.63;129716;1282;114830;-65
2023/04/14 10:28:06;;;;;;;67.60;46.00;;;;;;;13.55;76.42;99155.47;129637;1261;115518;-66
2023/04/14 10:31:15;;;;;;;65.20;45.50;;;;;;;13.78;76.24;99153.05;129737;1263;114734;-66
2023/04/14 10:34:18;;;;;;;59.70;43.60;;;;;;;13.96;75.66;99147.66;129686;1264;114927;-66
2023/04/14 10:37:20;;;;;;;64.70;46.10;;;;;;;14.14;75.56;99145.84;129660;1263;114743;-66
2023/04/14 10:40:22;;;;;;;69.80;46.80;;;;;;;14.28;75.17;99139.48;129667;1259;114883;-67
2023/04/14 10:43:27;;;;;;;66.80;45.00;;;;;;;14.35;74.32;99134.39;129749;1263;114873;-66
2023/04/14 10:46:42;;;;;;;62.40;45.00;;;;;;;14.28;73.80;99133.52;129542;1266;114712;-65
2023/04/14 10:49:48;;;;;;;66.20;45.10;;;;;;;14.24;73.79;99138.77;129713;1264;114727;-66
2023/04/14 10:52:55;;;;;;;64.00;46.60;;;;;;;14.16;73.73;99138.55;129711;1277;115174;-66
2023/04/14 10:56:01;;;;;;;65.60;44.30;;;;;;;14.15;74.12;99137.53;129594;1264;127012;-66
2023/04/14 10:59:03;;;;;;;64.50;46.60;;;;;;;14.18;73.92;99136.34;129705;1277;115185;-66
2023/04/14 11:02:28;;;;;;;66.60;46.50;;;;;;;14.14;73.67;99136.31;129710;1262;114715;-65
2023/04/14 11:05:33;;;;;;;73.90;51.10;;;;;;;14.15;73.71;99128.31;129690;1263;114765;-65
2023/04/14 11:08:35;;;;;;;64.10;46.40;;;;;;;14.16;73.83;99127.73;129739;1263;114698;-66
2023/04/14 11:11:37;;;;;;;66.00;45.80;;;;;;;14.18;74.11;99123.81;129789;1260;114734;-65
2023/04/14 11:14:40;;;;;;;62.80;47.60;;;;;;;14.19;73.80;99117.44;129880;1282;114810;-66
2023/04/14 11:17:43;;;;;;;60.60;43.60;;;;;;;14.23;73.80;99107.07;129650;1261;116422;-65
2023/04/14 11:20:45;;;;;;;66.40;47.00;;;;;;;14.26;73.79;99104.80;129826;1262;115230;-66
2023/04/14 11:23:48;;;;;;;68.50;49.10;;;;;;;14.32;73.41;99106.85;129858;1263;115355;-66
2023/04/14 11:26:52;;;;;;;61.60;46.10;;;;;;;14.36;73.45;99104.19;129776;1260;114877;-67
2023/04/14 11:29:54;;;;;;;68.60;48.70;;;;;;;14.33;72.71;99097.95;129846;1261;115307;-66
2023/04/14 11:32:57;;;;;;;64.00;47.30;;;;;;;14.30;72.74;99096.43;129675;1263;114718;-66
2023/04/14 11:36:01;;;;;;;62.10;45.90;;;;;;;14.28;72.83;99092.40;129649;1276;114755;-66
2023/04/14 11:39:03;;;;;;;60.90;44.20;;;;;;;14.36;72.99;99087.47;129774;1261;115515;-65
2023/04/14 11:42:05;;;;;;;69.40;47.80;;;;;;;14.45;72.63;99087.38;129899;1263;115345;-65
2023/04/14 11:45:08;;;;;;;62.20;46.60;;;;;;;14.57;72.85;99074.35;129501;1260;115002;-66
2023/04/14 11:48:11;;;;;;;60.90;44.70;;;;;;;14.81;73.25;99071.63;129652;1263;114709;-66
2023/04/14 11:51:13;;;;;;;64.90;46.70;;;;;;;15.05;72.98;99071.28;129752;1261;114734;-66
2023/04/14 11:54:15;;;;;;;61.30;43.90;;;;;;;15.27;72.72;99066.45;129680;1262;115093;-66
2023/04/14 11:57:17;;;;;;;71.60;48.00;;;;;;;15.44;72.33;99063.55;129729;1282;114814;-66
2023/04/14 12:00:19;;;;;;;65.10;45.90;;;;;;;15.59;72.38;99058.46;129370;1261;114699;-66
2023/04/14 12:03:26;;;;;;;62.80;45.80;;;;;;;15.73;71.97;99050.33;129711;1278;114748;-67
2023/04/14 12:06:34;;;;;;;62.80;45.10;;;;;;;15.80;71.61;99041.92;129683;1261;114843;-67
2023/04/14 12:09:41;;;;;;;60.30;44.10;;;;;;;15.94;71.56;99042.50;129447;1261;127866;-66
2023/04/14 12:12:43;;;;;;;63.40;45.80;;;;;;;16.13;71.83;99040.53;129713;1263;115239;-67
2023/04/14 12:15:46;;;;;;;59.30;42.00;;;;;;;16.34;71.75;99037.07;129687;1260;115165;-67
2023/04/14 12:18:48;;;;;;;60.30;43.00;;;;;;;16.49;71.04;99026.23;129707;1282;114821;-67
2023/04/14 12:21:53;;;;;;;56.10;41.30;;;;;;;16.56;70.64;99024.50;129729;1261;114798;-67
2023/04/14 12:24:56;;;;;;;52.60;39.00;;;;;;;16.59;70.42;99017.75;129654;1262;115130;-66
2023/04/14 12:28:01;;;;;;;55.50;40.50;;;;;;;16.58;69.78;99009.38;129654;1282;114920;-67
2023/04/14 12:31:03;;;;;;;49.70;39.30;;;;;;;16.58;70.12;99011.02;129566;1260;115243;-66
2023/04/14 12:34:05;;;;;;;61.50;43.40;;;;;;;16.69;70.61;99008.64;129657;1264;114808;-66
2023/04/14 12:37:11;;;;;;;52.40;40.00;;;;;;;16.80;70.48;99004.36;129785;1264;115231;-66
2023/04/14 12:40:13;;;;;;;61.80;42.60;;;;;;;16.86;70.23;98995.00;129667;1261;114682;-67
2023/04/14 12:43:27;;;;;;;59.60;43.00;;;;;;;16.91;70.00;98990.92;129661;1272;114744;-66
2023/04/14 12:46:31;;;;;;;60.50;42.40;;;;;;;16.95;69.67;98986.02;129672;1264;128589;-67
2023/04/14 12:49:37;;;;;;;54.70;41.90;;;;;;;16.96;69.45;98982.82;129421;1261;114936;-67
2023/04/14 12:52:39;;;;;;;60.80;42.20;;;;;;;16.93;69.36;98977.34;129645;1260;114775;-66
2023/04/14 12:55:42;;;;;;;54.50;40.00;;;;;;;16.93;69.28;98978.45;129760;1262;114990;-64
2023/04/14 12:58:49;;;;;;;51.00;41.00;;;;;;;16.90;69.09;98977.98;129641;1263;114707;-65
2023/04/14 13:01:52;;;;;;;55.90;42.20;;;;;;;16.83;69.00;98973.59;129373;1263;128141;-66
2023/04/14 13:04:55;;;;;;;56.70;41.60;;;;;;;16.83;69.31;98969.27;129659;1263;114718;-68
2023/04/14 13:07:57;;;;;;;56.30;40.20;;;;;;;16.80;69.00;98967.63;129769;1260;115220;-66
2023/04/14 13:10:59;;;;;;;53.20;38.20;;;;;;;16.73;69.02;98966.64;129763;1263;115125;-66
2023/04/14 13:14:01;;;;;;;53.40;39.70;;;;;;;16.65;68.90;98961.25;129480;1265;114904;-66
2023/04/14 13:17:03;;;;;;;56.40;39.70;;;;;;;16.56;69.08;98956.20;129683;1263;114855;-67
2023/04/14 13:20:06;;;;;;;56.10;41.60;;;;;;;16.52;69.26;98957.48;129881;1262;114838;-67
2023/04/14 13:23:08;;;;;;;56.50;40.70;;;;;;;16.49;69.45;98961.92;129445;1279;222087;-67
2023/04/14 13:26:11;;;;;;;59.50;42.80;;;;;;;16.46;69.63;98959.72;129734;1261;115267;-66
2023/04/14 13:29:13;;;;;;;57.90;43.00;;;;;;;16.46;69.85;98950.63;129754;1263;115179;-67
2023/04/14 13:32:15;;;;;;;58.60;42.60;;;;;;;16.47;70.04;98946.64;129422;1260;115116;-66
2023/04/14 13:35:17;;;;;;;57.70;41.20;;;;;;;16.49;70.36;98939.40;129671;1261;114729;-67
2023/04/14 13:38:19;;;;;;;53.20;40.30;;;;;;;16.47;70.29;98936.14;129710;1260;114718;-67
2023/04/14 13:41:22;;;;;;;54.50;40.60;;;;;;;16.41;70.24;98933.49;129683;1280;114721;-67
2023/04/14 13:44:24;;;;;;;57.40;43.10;;;;;;;16.37;70.35;98931.55;129721;1261;114734;-67
2023/04/14 13:47:27;;;;;;;61.50;44.30;;;;;;;16.38;70.64;98926.37;129808;1263;114810;-67
2023/04/14 13:50:29;;;;;;;60.70;43.90;;;;;;;16.37;70.83;98925.88;129820;1263;114739;-67
2023/04/14 13:53:31;;;;;;;59.60;42.90;;;;;;;16.36;70.75;98923.33;129662;1262;114719;-68